Date,TemperatureHighF,TemperatureAvgF,TemperatureLowF,DewpointHighF,DewpointAvgF,DewpointLowF,HumidityHigh,HumidityAvg,HumidityLow,PressureMaxIn,PressureMinIn,WindSpeedMaxMPH,WindSpeedAvgMPH,GustSpeedMaxMPH,PrecipitationSumIn
2013-1-6,38,36,31,32,30,28,87,79,70,29.98,29.95,0,0,2,0.00
2013-1-7,59,48,28,40,34,25,90,62,39,29.96,29.69,2,0,8,0.00
2013-1-8,52,51,49,50,48,40,93,89,67,29.69,29.51,2,0,7,1.25
2013-1-9,60,55,50,53,51,47,93,85,76,29.65,29.47,2,0,10,1.49
2013-1-10,70,55,43,48,44,39,92,69,42,29.67,29.60,2,0,8,0.00
2013-1-11,78,64,42,60,54,37,87,69,48,29.65,29.44,2,0,8,0.00
2013-1-12,76,64,0,64,56,33,79,66,55,29.56,29.29,3,1,8,0.00
2013-1-13,55,44,36,33,29,23,67,56,39,29.82,29.56,3,1,10,0.00
2013-1-14,55,41,34,31,26,22,66,57,35,29.90,29.73,2,1,9,0.00
2013-1-15,41,36,32,32,30,24,88,77,61,29.89,29.73,3,1,9,0.02
2013-1-16,57,39,28,24,20,10,78,53,19,29.98,29.81,2,0,7,0.00
2013-1-17,70,45,28,39,30,22,86,60,24,30.11,29.92,2,0,7,0.00
2013-1-18,71,57,29,38,33,26,88,44,21,30.14,29.94,2,0,8,0.00
2013-1-19,73,54,40,49,42,35,87,66,36,29.95,29.77,2,0,6,0.00
2013-1-20,79,50,35,51,40,32,90,71,28,29.88,29.70,1,0,5,0.00
2013-1-21,78,55,39,52,42,35,88,67,31,29.88,29.76,2,0,6,0.00
2013-1-22,77,55,39,52,44,34,85,67,38,29.94,29.82,2,0,7,0.00
2013-1-23,82,60,45,58,50,41,90,72,42,29.96,29.82,2,0,7,0.00
2013-1-24,88,67,53,63,57,48,89,72,38,29.87,29.72,1,0,4,0.00
2013-1-25,88,68,54,63,57,46,85,69,39,29.79,29.64,2,0,5,0.00
2013-1-26,64,56,50,56,50,46,88,81,75,29.83,29.70,1,0,5,0.00
2013-1-27,80,73,62,64,63,56,83,70,54,29.71,29.57,2,1,13,0.00
2013-1-28,79,72,69,66,64,63,82,76,62,29.66,29.49,3,1,11,0.00
2013-1-29,83,70,55,66,55,20,85,61,25,29.50,29.14,3,1,11,0.00
2013-1-30,63,52,37,29,18,3,62,29,12,29.84,29.44,3,1,15,0.00
2013-1-31,76,59,28,32,21,9,85,28,10,29.92,29.79,1,0,8,0.00